createdAt,value
2018-12-27T00:00:11.511Z,90.20
2018-12-27T00:01:11.604Z,90.72
2018-12-27T00:02:11.518Z,90.62
2018-12-27T00:03:11.543Z,90.31
2018-12-27T00:04:11.476Z,90.93
2018-12-27T00:05:11.532Z,90.83
2018-12-27T00:06:11.448Z,90.83
2018-12-27T00:07:11.539Z,91.04
2018-12-27T00:08:11.471Z,91.25
2018-12-27T00:09:11.452Z,91.04
2018-12-27T00:10:11.402Z,91.56
2018-12-27T00:11:11.467Z,91.50
2018-12-27T00:12:11.380Z,91.35
2018-12-27T00:13:11.402Z,91.35
2018-12-27T00:14:11.370Z,91.81
2018-12-27T00:15:11.391Z,91.56
2018-12-27T00:16:11.337Z,92.29
2018-12-27T00:17:11.402Z,91.87
2018-12-27T00:18:11.330Z,91.87
2018-12-27T00:19:12.338Z,91.50
2018-12-27T00:20:11.307Z,91.91
2018-12-27T00:21:11.326Z,92.02
2018-12-27T00:22:11.272Z,92.43
2018-12-27T00:23:13.322Z,92.64
2018-12-27T00:24:11.251Z,92.43
2018-12-27T00:25:11.274Z,92.85
2018-12-27T00:26:11.229Z,93.05
2018-12-27T00:27:11.265Z,92.33
2018-12-27T00:28:11.207Z,92.43
2018-12-27T00:29:11.310Z,93.16
2018-12-27T00:30:11.196Z,92.85
2018-12-27T00:31:11.292Z,93.05
2018-12-27T00:32:11.164Z,93.05
2018-12-27T00:33:11.202Z,92.74
2018-12-27T00:34:11.157Z,92.54
2018-12-27T00:35:11.219Z,92.64
2018-12-27T00:36:11.135Z,93.27
2018-12-27T00:37:11.130Z,93.05
2018-12-27T00:38:11.100Z,93.37
2018-12-27T00:39:11.171Z,93.27
2018-12-27T00:40:11.077Z,93.27
2018-12-27T00:41:11.160Z,92.95
2018-12-27T00:42:11.071Z,93.37
2018-12-27T00:43:11.068Z,92.85
2018-12-27T00:44:11.052Z,93.16
2018-12-27T00:45:11.083Z,93.05
2018-12-27T00:46:11.012Z,93.16
2018-12-27T00:47:11.096Z,92.43
2018-12-27T00:48:11.003Z,92.74
2018-12-27T00:49:11.042Z,92.27
2018-12-27T00:50:10.975Z,92.47
2018-12-27T00:51:11.021Z,91.75
2018-12-27T00:52:10.946Z,92.12
2018-12-27T00:53:11.036Z,91.64
2018-12-27T00:54:10.952Z,92.02
2018-12-27T00:55:10.953Z,92.06
2018-12-27T00:56:10.908Z,92.16
2018-12-27T00:57:10.960Z,91.43
2018-12-27T00:58:10.881Z,91.50
2018-12-27T00:59:10.902Z,90.87
2018-12-27T01:00:10.881Z,90.81
2018-12-27T01:01:11.910Z,90.87
2018-12-27T01:02:10.837Z,91.33
2018-12-27T01:03:11.923Z,91.28
2018-12-27T01:04:10.831Z,89.98
2018-12-27T01:05:11.833Z,89.98
2018-12-27T01:06:10.809Z,90.91
2018-12-27T01:07:10.823Z,91.02
2018-12-27T01:08:10.774Z,90.70
2018-12-27T01:09:11.907Z,90.81
2018-12-27T01:10:10.752Z,90.87
2018-12-27T01:11:11.772Z,90.50
2018-12-27T01:12:10.746Z,90.87
2018-12-27T01:13:10.764Z,90.70
2018-12-27T01:14:10.729Z,90.66
2018-12-27T01:15:10.776Z,90.60
2018-12-27T01:16:10.687Z,90.87
2018-12-27T01:17:10.794Z,90.39
2018-12-27T01:18:10.686Z,90.70
2018-12-27T01:19:10.733Z,90.50
2018-12-27T01:20:10.644Z,90.60
2018-12-27T01:21:10.714Z,90.81
2018-12-27T01:22:10.622Z,89.62
2018-12-27T01:23:10.627Z,89.41
2018-12-27T01:24:10.658Z,89.14
2018-12-27T01:25:10.639Z,89.31
2018-12-27T01:26:10.578Z,89.00
2018-12-27T01:27:10.653Z,88.20
2018-12-27T01:28:10.556Z,88.73
2018-12-27T01:29:10.566Z,88.52
2018-12-27T01:30:10.575Z,88.62
2018-12-27T01:31:10.582Z,88.62
2018-12-27T01:32:10.516Z,88.42
2018-12-27T01:33:10.593Z,88.73
2018-12-27T01:34:10.494Z,88.52
2018-12-27T01:35:10.533Z,88.83
2018-12-27T01:36:10.493Z,88.31
2018-12-27T01:37:10.519Z,88.73
2018-12-27T01:38:10.452Z,88.83
2018-12-27T01:39:10.534Z,88.73
2018-12-27T01:40:10.440Z,89.00
2018-12-27T01:41:10.443Z,88.48
2018-12-27T01:42:10.419Z,88.58
2018-12-27T01:43:10.456Z,87.99
2018-12-27T01:44:10.383Z,88.06
2018-12-27T01:45:10.499Z,87.43
2018-12-27T01:46:10.362Z,87.65
2018-12-27T01:47:10.379Z,87.23
2018-12-27T01:48:10.354Z,87.02
2018-12-27T01:49:12.443Z,86.71
2018-12-27T01:50:12.180Z,86.40
2018-12-27T01:51:11.330Z,87.43
2018-12-27T01:52:10.297Z,86.91
2018-12-27T01:53:10.356Z,87.02
2018-12-27T01:54:10.308Z,87.68
2018-12-27T01:55:10.361Z,87.48
2018-12-27T01:56:10.252Z,87.02
2018-12-27T01:57:11.268Z,87.54
2018-12-27T01:58:10.231Z,86.81
2018-12-27T01:59:10.268Z,86.81
2018-12-27T02:00:10.244Z,87.48
2018-12-27T02:01:10.271Z,87.43
2018-12-27T02:02:10.187Z,86.75
2018-12-27T02:03:10.293Z,87.58
2018-12-27T02:04:10.168Z,87.75
2018-12-27T02:05:10.231Z,87.43
2018-12-27T02:06:10.170Z,86.65
2018-12-27T02:07:10.216Z,86.96
2018-12-27T02:08:10.123Z,87.43
2018-12-27T02:09:10.229Z,86.50
2018-12-27T02:10:10.140Z,87.37
2018-12-27T02:11:10.139Z,87.27
2018-12-27T02:12:10.109Z,87.37
2018-12-27T02:13:10.156Z,87.02
2018-12-27T02:14:10.060Z,86.75
2018-12-27T02:15:10.091Z,87.16
2018-12-27T02:16:10.037Z,87.54
2018-12-27T02:17:10.075Z,87.23
2018-12-27T02:18:10.033Z,87.33
2018-12-27T02:19:10.089Z,87.33
2018-12-27T02:20:10.011Z,86.65
2018-12-27T02:21:10.001Z,86.71
2018-12-27T02:22:09.971Z,86.40
2018-12-27T02:23:10.014Z,86.71
2018-12-27T02:24:09.976Z,87.23
2018-12-27T02:25:10.055Z,86.71
2018-12-27T02:26:09.929Z,87.23
2018-12-27T02:27:09.939Z,87.02
2018-12-27T02:28:09.909Z,86.71
2018-12-27T02:29:09.959Z,87.33
2018-12-27T02:30:10.055Z,87.33
2018-12-27T02:31:09.968Z,86.29
2018-12-27T02:32:09.862Z,87.12
2018-12-27T02:33:09.883Z,86.60
2018-12-27T02:34:09.842Z,86.91
2018-12-27T02:35:09.889Z,86.71
2018-12-27T02:36:09.855Z,86.60
2018-12-27T02:37:10.827Z,86.04
2018-12-27T02:38:09.799Z,86.35
2018-12-27T02:39:09.815Z,86.98
2018-12-27T02:40:09.779Z,86.25
2018-12-27T02:41:09.965Z,86.04
2018-12-27T02:42:09.768Z,86.57
2018-12-27T02:43:10.765Z,86.67
2018-12-27T02:44:09.737Z,86.57
2018-12-27T02:45:09.755Z,86.46
2018-12-27T02:46:09.730Z,85.94
2018-12-27T02:47:09.789Z,86.25
2018-12-27T02:48:09.705Z,86.35
2018-12-27T02:49:09.783Z,86.15
2018-12-27T02:50:09.671Z,86.46
2018-12-27T02:51:09.721Z,86.25
2018-12-27T02:52:09.649Z,86.46
2018-12-27T02:53:09.706Z,86.04
2018-12-27T02:54:09.641Z,85.94
2018-12-27T02:55:09.719Z,86.25
2018-12-27T02:56:09.642Z,87.29
2018-12-27T02:57:09.632Z,85.83
2018-12-27T02:58:09.588Z,86.25
2018-12-27T02:59:09.645Z,86.88
2018-12-27T03:00:09.579Z,86.77
2018-12-27T03:01:09.585Z,85.83
2018-12-27T03:02:09.541Z,85.83
2018-12-27T03:03:09.571Z,86.25
2018-12-27T03:04:09.528Z,85.42
2018-12-27T03:05:09.584Z,85.31
2018-12-27T03:06:09.535Z,85.42
2018-12-27T03:07:09.598Z,85.42
2018-12-27T03:08:09.474Z,85.42
2018-12-27T03:09:09.511Z,85.42
2018-12-27T03:10:09.455Z,84.90
2018-12-27T03:11:09.553Z,85.00
2018-12-27T03:12:09.447Z,84.69
2018-12-27T03:13:09.434Z,84.69
2018-12-27T03:14:09.420Z,84.90
2018-12-27T03:15:09.447Z,85.11
2018-12-27T03:16:09.402Z,84.69
2018-12-27T03:17:09.463Z,84.80
2018-12-27T03:18:09.390Z,84.48
2018-12-27T03:19:09.374Z,84.80
2018-12-27T03:20:09.349Z,84.69
2018-12-27T03:21:11.463Z,84.80
2018-12-27T03:22:09.323Z,85.52
2018-12-27T03:23:24.354Z,84.69
2018-12-27T03:24:09.323Z,86.04
2018-12-27T03:25:09.311Z,86.63
2018-12-27T03:26:09.304Z,85.28
2018-12-27T03:27:09.324Z,84.80
2018-12-27T03:28:09.255Z,85.52
2018-12-27T03:29:10.260Z,85.42
2018-12-27T03:30:09.255Z,85.38
2018-12-27T03:31:09.283Z,85.38
2018-12-27T03:32:09.214Z,85.17
2018-12-27T03:33:09.270Z,85.42
2018-12-27T03:34:09.191Z,85.73
2018-12-27T03:35:09.284Z,85.94
2018-12-27T03:36:09.192Z,86.32
2018-12-27T03:37:09.218Z,86.04
2018-12-27T03:38:09.147Z,86.73
2018-12-27T03:39:09.204Z,85.90
2018-12-27T03:40:09.124Z,85.80
2018-12-27T03:41:09.216Z,86.63
2018-12-27T03:42:09.140Z,86.52
2018-12-27T03:43:09.127Z,86.21
2018-12-27T03:44:09.081Z,86.21
2018-12-27T03:45:09.144Z,86.32
2018-12-27T03:46:09.061Z,86.32
2018-12-27T03:47:09.082Z,86.94
2018-12-27T03:48:09.070Z,86.83
2018-12-27T03:49:09.066Z,86.32
2018-12-27T03:50:09.018Z,86.52
2018-12-27T03:51:09.079Z,86.42
2018-12-27T03:52:09.014Z,86.63
2018-12-27T03:53:09.093Z,87.25
2018-12-27T03:54:08.989Z,87.25
2018-12-27T03:55:09.005Z,86.32
2018-12-27T03:56:08.953Z,87.25
2018-12-27T03:57:09.047Z,86.94
2018-12-27T03:58:08.929Z,87.66
2018-12-27T03:59:08.929Z,87.11
2018-12-27T04:00:08.926Z,87.04
2018-12-27T04:01:08.947Z,87.42
2018-12-27T04:02:08.902Z,87.35
2018-12-27T04:03:08.959Z,88.25
2018-12-27T04:04:08.864Z,88.46
2018-12-27T04:05:08.880Z,88.35
2018-12-27T04:06:08.857Z,88.50
2018-12-27T04:07:08.919Z,88.50
2018-12-27T04:08:08.828Z,88.40
2018-12-27T04:09:08.899Z,88.46
2018-12-27T04:10:08.806Z,88.60
2018-12-27T04:11:08.811Z,88.29
2018-12-27T04:12:08.808Z,88.77
2018-12-27T04:13:08.824Z,89.23
2018-12-27T04:14:08.765Z,88.87
2018-12-27T04:15:08.837Z,89.50
2018-12-27T04:16:08.733Z,88.92
2018-12-27T04:17:08.776Z,89.39
2018-12-27T04:18:08.733Z,89.60
2018-12-27T04:19:08.761Z,89.60
2018-12-27T04:20:08.701Z,89.39
2018-12-27T04:21:08.774Z,89.70
2018-12-27T04:22:08.684Z,90.06
2018-12-27T04:23:08.686Z,90.79
2018-12-27T04:24:08.707Z,89.70
2018-12-27T04:25:08.700Z,89.60
2018-12-27T04:26:08.626Z,89.39
2018-12-27T04:27:08.637Z,89.39
2018-12-27T04:28:08.601Z,89.81
2018-12-27T04:29:08.626Z,90.26
2018-12-27T04:30:08.597Z,89.85
2018-12-27T04:31:08.642Z,90.75
2018-12-27T04:32:08.580Z,90.58
2018-12-27T04:33:08.657Z,90.79
2018-12-27T04:34:09.715Z,90.47
2018-12-27T04:35:08.568Z,89.95
2018-12-27T04:36:08.531Z,90.58
2018-12-27T04:37:08.602Z,91.20
2018-12-27T04:38:08.488Z,91.27
2018-12-27T04:39:08.593Z,91.31
2018-12-27T04:40:08.469Z,91.20
2018-12-27T04:41:08.505Z,91.16
2018-12-27T04:42:08.487Z,91.72
2018-12-27T04:43:08.520Z,91.31
2018-12-27T04:44:08.423Z,91.41
2018-12-27T04:45:08.431Z,91.52
2018-12-27T04:46:08.403Z,91.62
2018-12-27T04:47:08.474Z,91.52
2018-12-27T04:48:08.398Z,91.93
2018-12-27T04:49:08.465Z,91.93
2018-12-27T04:50:08.360Z,91.93
2018-12-27T04:51:08.369Z,92.66
2018-12-27T04:52:08.377Z,91.99
2018-12-27T04:53:44.347Z,92.03
2018-12-27T04:54:08.322Z,92.45
2018-12-27T04:55:08.304Z,91.93
2018-12-27T04:56:09.323Z,92.14
2018-12-27T04:57:08.286Z,92.45
2018-12-27T04:58:08.343Z,92.03
2018-12-27T04:59:08.281Z,93.03
2018-12-27T05:00:08.327Z,92.97
2018-12-27T05:01:08.237Z,92.86
2018-12-27T05:02:09.263Z,93.18
2018-12-27T05:03:08.230Z,92.76
2018-12-27T05:04:08.260Z,92.97
2018-12-27T05:05:08.208Z,92.86
2018-12-27T05:06:08.270Z,92.97
2018-12-27T05:07:08.173Z,92.97
2018-12-27T05:08:08.212Z,92.86
2018-12-27T05:09:08.165Z,92.61
2018-12-27T05:10:08.189Z,93.39
2018-12-27T05:11:08.150Z,93.39
2018-12-27T05:12:08.204Z,92.55
2018-12-27T05:13:08.118Z,92.97
2018-12-27T05:14:08.114Z,92.86
2018-12-27T05:15:08.092Z,92.86
2018-12-27T05:16:08.127Z,93.49
2018-12-27T05:17:08.083Z,93.29
2018-12-27T05:18:08.176Z,94.32
2018-12-27T05:19:08.038Z,93.91
2018-12-27T05:20:08.053Z,94.01
2018-12-27T05:21:08.017Z,93.29
2018-12-27T05:22:08.089Z,93.70
2018-12-27T05:23:08.029Z,93.60
2018-12-27T05:24:08.087Z,93.39
2018-12-27T05:25:08.010Z,94.01
2018-12-27T05:26:07.991Z,94.12
2018-12-27T05:27:08.004Z,94.01
2018-12-27T05:28:08.037Z,93.07
2018-12-27T05:29:07.957Z,93.60
2018-12-27T05:30:08.017Z,94.12
2018-12-27T05:31:07.908Z,93.80
2018-12-27T05:32:07.929Z,93.39
2018-12-27T05:33:07.907Z,92.66
2018-12-27T05:34:07.942Z,92.86
2018-12-27T05:35:07.887Z,93.39
2018-12-27T05:36:07.957Z,94.32
2018-12-27T05:37:07.848Z,94.22
2018-12-27T05:38:13.335Z,94.12
2018-12-27T05:39:07.819Z,93.91
2018-12-27T05:40:43.827Z,93.60
2018-12-27T05:41:07.800Z,94.22
2018-12-27T05:42:07.787Z,93.49
2018-12-27T05:43:07.833Z,94.37
2018-12-27T05:44:07.766Z,94.26
2018-12-27T05:45:07.843Z,93.64
2018-12-27T05:46:07.761Z,94.06
2018-12-27T05:47:07.831Z,94.26
2018-12-27T05:48:07.734Z,94.37
2018-12-27T05:49:07.739Z,94.78
2018-12-27T05:50:07.703Z,94.37
2018-12-27T05:51:07.770Z,94.57
2018-12-27T05:52:07.712Z,94.26
2018-12-27T05:53:07.800Z,94.47
2018-12-27T05:54:07.661Z,94.16
2018-12-27T05:55:07.680Z,94.89
2018-12-27T05:56:07.637Z,94.99
2018-12-27T05:57:07.706Z,94.89
2018-12-27T05:58:07.614Z,94.89
2018-12-27T05:59:07.635Z,94.99
2018-12-27T06:00:07.594Z,94.74
2018-12-27T06:01:07.616Z,95.20
2018-12-27T06:02:07.572Z,94.89
2018-12-27T06:03:07.654Z,95.20
2018-12-27T06:04:07.565Z,95.40
2018-12-27T06:05:07.644Z,95.30
2018-12-27T06:06:07.528Z,95.40
2018-12-27T06:07:07.554Z,95.51
2018-12-27T06:08:07.503Z,95.30
2018-12-27T06:09:07.613Z,94.89
2018-12-27T06:10:07.479Z,95.20
2018-12-27T06:11:07.582Z,94.99
2018-12-27T06:12:07.463Z,95.40
2018-12-27T06:13:07.493Z,95.20
2018-12-27T06:14:07.454Z,94.99
2018-12-27T06:15:07.541Z,95.30
2018-12-27T06:16:07.413Z,95.09
2018-12-27T06:17:07.419Z,95.30
2018-12-27T06:18:07.397Z,95.51
2018-12-27T06:19:07.461Z,95.72
2018-12-27T06:20:07.379Z,95.72
2018-12-27T06:21:07.463Z,95.62
2018-12-27T06:22:07.350Z,96.24
2018-12-27T06:23:14.322Z,96.14
2018-12-27T06:24:07.343Z,96.34
2018-12-27T06:25:09.421Z,96.34
2018-12-27T06:26:07.305Z,96.03
2018-12-27T06:27:14.458Z,96.34
2018-12-27T06:28:07.284Z,96.34
2018-12-27T06:29:07.333Z,96.24
2018-12-27T06:30:07.271Z,96.45
2018-12-27T06:31:07.311Z,96.24
2018-12-27T06:32:07.242Z,96.34
2018-12-27T06:33:07.352Z,96.34
2018-12-27T06:34:07.232Z,96.34
2018-12-27T06:35:07.234Z,96.14
2018-12-27T06:36:07.197Z,96.24
2018-12-27T06:37:07.248Z,96.45
2018-12-27T06:38:07.176Z,96.49
2018-12-27T06:39:07.299Z,96.24
2018-12-27T06:40:07.152Z,96.45
2018-12-27T06:41:07.173Z,95.62
2018-12-27T06:42:07.132Z,95.62
2018-12-27T06:43:07.187Z,95.62
2018-12-27T06:44:07.126Z,95.83
2018-12-27T06:45:07.143Z,96.03
2018-12-27T06:46:07.087Z,96.34
2018-12-27T06:47:07.113Z,96.14
2018-12-27T06:48:07.067Z,96.34
2018-12-27T06:49:07.127Z,96.34
2018-12-27T06:50:07.059Z,96.03
2018-12-27T06:51:07.147Z,95.83
2018-12-27T06:52:07.022Z,96.03
2018-12-27T06:53:07.050Z,96.34
2018-12-27T06:54:07.011Z,96.14
2018-12-27T06:55:07.102Z,96.24
2018-12-27T06:56:06.979Z,96.14
2018-12-27T06:57:07.015Z,96.24
2018-12-27T06:58:06.978Z,96.24
2018-12-27T06:59:06.989Z,96.03
2018-12-27T07:00:06.957Z,95.87
2018-12-27T07:01:07.002Z,96.24
2018-12-27T07:02:06.913Z,96.14
2018-12-27T07:03:07.970Z,96.24
2018-12-27T07:04:06.891Z,96.45
2018-12-27T07:05:06.962Z,96.55
2018-12-27T07:06:06.886Z,96.34
2018-12-27T07:07:06.942Z,96.45
2018-12-27T07:08:06.847Z,96.34
2018-12-27T07:09:06.860Z,96.34
2018-12-27T07:10:06.841Z,96.45
2018-12-27T07:11:21.818Z,96.45
2018-12-27T07:12:06.805Z,96.34
2018-12-27T07:13:13.846Z,95.93
2018-12-27T07:14:06.785Z,96.39
2018-12-27T07:15:06.839Z,96.34
2018-12-27T07:16:06.767Z,96.34
2018-12-27T07:17:06.806Z,96.45
2018-12-27T07:18:07.685Z,96.34
2018-12-27T07:19:06.829Z,96.08
2018-12-27T07:20:06.733Z,96.14
2018-12-27T07:21:06.743Z,95.87
2018-12-27T07:22:06.695Z,96.24
2018-12-27T07:23:06.749Z,96.34
2018-12-27T07:24:06.675Z,96.14
2018-12-27T07:25:06.789Z,95.72
2018-12-27T07:26:06.653Z,95.40
2018-12-27T07:27:06.701Z,95.09
2018-12-27T07:28:06.630Z,94.99
2018-12-27T07:29:06.686Z,94.99
2018-12-27T07:30:06.627Z,94.16
2018-12-27T07:31:06.701Z,94.47
2018-12-27T07:32:06.638Z,93.95
2018-12-27T07:33:06.640Z,94.06
2018-12-27T07:34:06.577Z,94.06
2018-12-27T07:35:06.651Z,93.95
2018-12-27T07:36:06.546Z,93.95
2018-12-27T07:37:06.656Z,93.95
2018-12-27T07:38:06.522Z,94.16
2018-12-27T07:39:06.574Z,94.37
2018-12-27T07:40:06.501Z,94.57
2018-12-27T07:41:06.591Z,93.33
2018-12-27T07:42:06.483Z,93.54
2018-12-27T07:43:06.579Z,92.70
2018-12-27T07:44:06.456Z,93.39
2018-12-27T07:45:06.515Z,93.01
2018-12-27T07:46:10.824Z,92.91
2018-12-27T07:47:06.501Z,92.08
2018-12-27T07:48:06.417Z,92.18
2018-12-27T07:49:06.516Z,91.93
2018-12-27T07:50:06.391Z,91.52
2018-12-27T07:51:06.467Z,91.20
2018-12-27T07:52:06.373Z,90.47
2018-12-27T07:53:06.444Z,90.89
2018-12-27T07:54:06.352Z,90.47
2018-12-27T07:55:06.354Z,91.20
2018-12-27T07:56:06.343Z,89.23
2018-12-27T07:57:07.407Z,88.60
2018-12-27T07:58:06.325Z,88.40
2018-12-27T07:59:06.388Z,88.60
2018-12-27T08:00:06.286Z,87.25
2018-12-27T08:01:06.319Z,86.21
2018-12-27T08:02:06.260Z,86.11
2018-12-27T08:03:06.320Z,86.42
2018-12-27T08:04:06.247Z,84.65
2018-12-27T08:05:06.329Z,84.34
2018-12-27T08:06:06.257Z,84.75
2018-12-27T08:07:06.228Z,84.75
2018-12-27T08:08:06.194Z,85.38
2018-12-27T08:09:06.272Z,83.92
2018-12-27T08:10:06.176Z,83.40
2018-12-27T08:11:06.280Z,84.09
2018-12-27T08:12:06.157Z,82.95
2018-12-27T08:13:06.166Z,82.57
2018-12-27T08:14:06.128Z,82.32
2018-12-27T08:15:06.191Z,83.51
2018-12-27T08:16:06.127Z,83.37
2018-12-27T08:17:06.193Z,84.41
2018-12-27T08:18:06.088Z,82.84
2018-12-27T08:19:06.105Z,82.64
2018-12-27T08:20:06.083Z,82.36
2018-12-27T08:21:06.145Z,81.81
2018-12-27T08:22:06.041Z,82.43
2018-12-27T08:23:06.135Z,82.01
2018-12-27T08:24:06.020Z,81.08
2018-12-27T08:25:06.047Z,81.18
2018-12-27T08:26:06.012Z,81.49
2018-12-27T08:27:06.064Z,80.77
2018-12-27T08:28:05.989Z,80.66
2018-12-27T08:29:06.077Z,80.56
2018-12-27T08:30:05.956Z,80.15
2018-12-27T08:31:06.021Z,80.04
2018-12-27T08:32:05.932Z,80.98
2018-12-27T08:33:06.007Z,79.58
2018-12-27T08:34:05.920Z,79.41
2018-12-27T08:35:11.347Z,79.80
2018-12-27T08:36:06.909Z,79.72
2018-12-27T08:37:05.922Z,80.11
2018-12-27T08:38:05.870Z,80.66
2018-12-27T08:39:05.954Z,81.08
2018-12-27T08:40:05.864Z,81.08
2018-12-27T08:41:05.858Z,80.98
2018-12-27T08:42:05.853Z,80.87
2018-12-27T08:43:06.894Z,80.77
2018-12-27T08:44:05.802Z,80.25
2018-12-27T08:45:07.841Z,81.81
2018-12-27T08:46:05.795Z,82.15
2018-12-27T08:47:05.815Z,81.74
2018-12-27T08:48:05.787Z,81.70
2018-12-27T08:49:05.849Z,82.05
2018-12-27T08:50:05.732Z,82.12
2018-12-27T08:51:05.825Z,82.68
2018-12-27T08:52:05.937Z,82.74
2018-12-27T08:53:07.838Z,82.89
2018-12-27T08:54:05.827Z,82.46
2018-12-27T08:55:05.917Z,83.30
2018-12-27T08:56:05.910Z,82.26
2018-12-27T08:57:05.763Z,82.89
2018-12-27T08:58:05.676Z,83.30
2018-12-27T08:59:05.717Z,82.89
2018-12-27T09:00:05.666Z,82.89
2018-12-27T09:01:05.685Z,83.40
2018-12-27T09:02:05.641Z,83.51
2018-12-27T09:03:05.714Z,83.09
2018-12-27T09:04:05.578Z,83.30
2018-12-27T09:05:05.647Z,83.20
2018-12-27T09:06:05.600Z,83.61
2018-12-27T09:07:05.643Z,83.51
2018-12-27T09:08:05.555Z,83.40
2018-12-27T09:09:05.632Z,83.30
2018-12-27T09:10:05.543Z,84.20
2018-12-27T09:11:05.545Z,83.99
2018-12-27T09:12:05.508Z,83.68
2018-12-27T09:13:05.561Z,83.16
2018-12-27T09:14:05.480Z,83.30
2018-12-27T09:15:06.307Z,84.23
2018-12-27T09:16:05.460Z,83.72
2018-12-27T09:17:05.507Z,84.03
2018-12-27T09:18:05.424Z,83.82
2018-12-27T09:19:05.501Z,85.06
2018-12-27T09:20:05.402Z,85.28
2018-12-27T09:21:05.544Z,84.96
2018-12-27T09:22:05.405Z,85.06
2018-12-27T09:23:05.423Z,85.17
2018-12-27T09:24:05.382Z,84.96
2018-12-27T09:25:05.435Z,85.28
2018-12-27T09:26:05.341Z,85.28
2018-12-27T09:27:05.499Z,85.13
2018-12-27T09:28:05.327Z,85.38
2018-12-27T09:29:06.390Z,86.52
2018-12-27T09:30:05.294Z,86.21
2018-12-27T09:31:07.322Z,86.21
2018-12-27T09:32:05.293Z,86.69
2018-12-27T09:33:05.322Z,86.73
2018-12-27T09:34:05.250Z,87.46
2018-12-27T09:35:05.692Z,87.25
2018-12-27T09:36:05.314Z,86.52
2018-12-27T09:37:06.291Z,87.25
2018-12-27T09:38:05.206Z,87.98
2018-12-27T09:39:05.246Z,86.63
2018-12-27T09:40:05.240Z,86.94
2018-12-27T09:41:05.243Z,86.42
2018-12-27T09:42:05.217Z,87.01
2018-12-27T09:43:05.255Z,87.56
2018-12-27T09:44:05.138Z,87.04
2018-12-27T09:45:05.169Z,86.94
2018-12-27T09:46:05.158Z,87.42
2018-12-27T09:47:05.203Z,86.69
2018-12-27T09:48:05.100Z,86.80
2018-12-27T09:49:05.199Z,86.69
2018-12-27T09:50:05.075Z,87.32
2018-12-27T09:51:05.100Z,87.11
2018-12-27T09:52:05.092Z,87.11
2018-12-27T09:53:05.194Z,87.52
2018-12-27T09:54:05.057Z,87.04
2018-12-27T09:55:05.136Z,87.01
2018-12-27T09:56:05.062Z,87.66
2018-12-27T09:57:05.045Z,88.56
2018-12-27T09:58:05.037Z,87.84
2018-12-27T09:59:05.053Z,88.56
2018-12-27T10:00:04.965Z,88.46
2018-12-27T10:01:04.968Z,87.84
2018-12-27T10:02:06.180Z,87.84
2018-12-27T10:03:05.011Z,88.04
2018-12-27T10:04:04.926Z,88.46
2018-12-27T10:05:05.112Z,88.62
2018-12-27T10:06:04.962Z,87.48
2018-12-27T10:07:05.021Z,87.38
2018-12-27T10:08:04.987Z,87.07
2018-12-27T10:09:05.073Z,88.42
2018-12-27T10:10:04.921Z,87.79
2018-12-27T10:11:05.039Z,87.07
2018-12-27T10:12:04.844Z,87.27
2018-12-27T10:13:05.129Z,86.55
2018-12-27T10:14:04.808Z,86.96
2018-12-27T10:15:04.974Z,87.38
2018-12-27T10:16:04.785Z,87.59
2018-12-27T10:17:04.974Z,87.90
2018-12-27T10:18:04.784Z,87.90
2018-12-27T10:19:06.941Z,86.82
2018-12-27T10:20:04.750Z,85.78
2018-12-27T10:21:05.948Z,86.76
2018-12-27T10:22:04.752Z,86.55
2018-12-27T10:23:04.840Z,86.61
2018-12-27T10:24:04.709Z,84.84
2018-12-27T10:25:05.859Z,85.20
2018-12-27T10:26:04.681Z,86.55
2018-12-27T10:27:06.798Z,85.72
2018-12-27T10:28:04.679Z,85.72
2018-12-27T10:29:04.749Z,84.89
2018-12-27T10:30:04.631Z,84.89
2018-12-27T10:31:04.774Z,85.20
2018-12-27T10:32:04.610Z,85.30
2018-12-27T10:33:04.848Z,85.41
2018-12-27T10:34:04.705Z,84.99
2018-12-27T10:35:04.689Z,85.20
2018-12-27T10:36:04.568Z,84.58
2018-12-27T10:37:04.608Z,85.20
2018-12-27T10:38:04.599Z,84.53
2018-12-27T10:39:04.667Z,84.64
2018-12-27T10:40:04.522Z,84.16
2018-12-27T10:41:05.577Z,84.22
2018-12-27T10:42:04.505Z,84.01
2018-12-27T10:43:04.544Z,84.12
2018-12-27T10:44:04.497Z,83.74
2018-12-27T10:45:04.664Z,83.91
2018-12-27T10:46:04.461Z,84.33
2018-12-27T10:47:04.473Z,83.81
2018-12-27T10:48:04.445Z,83.70
2018-12-27T10:49:04.538Z,84.22
2018-12-27T10:50:04.413Z,83.50
2018-12-27T10:51:04.502Z,83.18
2018-12-27T10:52:04.392Z,83.22
2018-12-27T10:53:04.421Z,83.39
2018-12-27T10:54:04.388Z,83.18
2018-12-27T10:55:04.423Z,82.77
2018-12-27T10:56:04.432Z,82.87
2018-12-27T10:57:34.723Z,82.63
2018-12-27T10:58:32.824Z,82.46
2018-12-27T10:59:32.820Z,82.15
2018-12-27T11:00:32.730Z,82.42
2018-12-27T11:01:32.830Z,81.70
2018-12-27T11:02:32.725Z,82.04
2018-12-27T11:03:32.763Z,81.70
2018-12-27T11:04:32.679Z,81.38
2018-12-27T11:05:32.756Z,81.49
2018-12-27T11:06:32.659Z,81.28
2018-12-27T11:07:32.784Z,81.21
2018-12-27T11:08:32.697Z,81.70
2018-12-27T11:09:32.793Z,81.18
2018-12-27T11:10:32.632Z,81.49
2018-12-27T11:11:32.719Z,81.18
2018-12-27T11:12:32.603Z,80.55
2018-12-27T11:13:32.604Z,80.97
2018-12-27T11:14:32.592Z,81.38
2018-12-27T11:15:32.629Z,81.07
2018-12-27T11:16:32.574Z,80.87
2018-12-27T11:17:32.653Z,81.70
2018-12-27T11:18:32.533Z,80.97
2018-12-27T11:19:32.590Z,81.18
2018-12-27T11:20:32.534Z,81.07
2018-12-27T11:21:33.675Z,81.18
2018-12-27T11:22:32.519Z,81.28
2018-12-27T11:23:32.613Z,81.76
2018-12-27T11:24:32.530Z,81.04
2018-12-27T11:25:32.483Z,81.18
2018-12-27T11:26:32.445Z,80.76
2018-12-27T11:27:32.544Z,81.18
2018-12-27T11:28:32.477Z,81.18
2018-12-27T11:29:32.558Z,81.59
2018-12-27T11:30:32.410Z,81.66
2018-12-27T11:31:32.438Z,81.38
2018-12-27T11:32:32.428Z,81.38
2018-12-27T11:33:32.453Z,81.45
2018-12-27T11:34:32.378Z,81.04
2018-12-27T11:35:32.450Z,81.04
2018-12-27T11:36:32.348Z,80.55
2018-12-27T11:37:32.432Z,80.24
2018-12-27T11:38:32.351Z,81.07
2018-12-27T11:39:33.460Z,81.87
2018-12-27T11:40:32.294Z,80.52
2018-12-27T11:41:32.385Z,80.83
2018-12-27T11:42:32.285Z,81.04
2018-12-27T11:43:32.294Z,80.83
2018-12-27T11:44:32.263Z,80.52
2018-12-27T11:45:34.270Z,80.41
2018-12-27T11:46:32.240Z,81.04
2018-12-27T11:47:33.256Z,80.41
2018-12-27T11:48:32.237Z,80.10
2018-12-27T11:49:32.273Z,79.79
2018-12-27T11:50:32.194Z,79.96
2018-12-27T11:51:33.334Z,79.90
2018-12-27T11:52:32.168Z,80.10
2018-12-27T11:53:33.211Z,78.96
2018-12-27T11:54:32.165Z,79.58
2018-12-27T11:55:33.210Z,79.06
2018-12-27T11:56:32.139Z,78.82
2018-12-27T11:57:32.202Z,78.65
2018-12-27T11:58:32.102Z,79.58
2018-12-27T11:59:32.255Z,79.85
2018-12-27T12:00:32.134Z,80.16
2018-12-27T12:01:32.145Z,79.65
2018-12-27T12:02:32.049Z,78.51
2018-12-27T12:03:32.153Z,78.51
2018-12-27T12:04:32.056Z,78.82
2018-12-27T12:05:32.064Z,78.82
2018-12-27T12:06:32.013Z,78.09
2018-12-27T12:07:32.055Z,77.99
2018-12-27T12:08:32.010Z,77.75
2018-12-27T12:09:32.061Z,77.89
2018-12-27T12:10:31.999Z,77.78
2018-12-27T12:11:31.969Z,77.12
2018-12-27T12:12:31.956Z,76.71
2018-12-27T12:13:31.990Z,77.23
2018-12-27T12:14:31.918Z,77.02
2018-12-27T12:15:32.946Z,77.85
2018-12-27T12:16:31.896Z,78.06
2018-12-27T12:17:31.911Z,78.27
2018-12-27T12:18:31.875Z,77.12
2018-12-27T12:19:31.966Z,77.02
2018-12-27T12:20:31.870Z,76.81
2018-12-27T12:21:32.000Z,77.33
2018-12-27T12:22:31.834Z,77.33
2018-12-27T12:23:31.848Z,77.26
2018-12-27T12:24:31.816Z,77.37
2018-12-27T12:25:31.892Z,77.75
2018-12-27T12:26:31.794Z,77.99
2018-12-27T12:27:31.882Z,78.37
2018-12-27T12:28:31.766Z,77.33
2018-12-27T12:29:31.787Z,77.54
2018-12-27T12:30:31.772Z,77.54
2018-12-27T12:31:31.799Z,77.33
2018-12-27T12:32:31.727Z,77.64
2018-12-27T12:33:31.821Z,77.85
2018-12-27T12:34:31.708Z,78.16
2018-12-27T12:35:31.763Z,78.58
2018-12-27T12:36:31.682Z,77.64
2018-12-27T12:37:31.793Z,78.16
2018-12-27T12:38:31.659Z,78.47
2018-12-27T12:39:31.757Z,79.41
2018-12-27T12:40:31.659Z,78.54
2018-12-27T12:41:31.664Z,78.68
2018-12-27T12:42:33.131Z,79.51
2018-12-27T12:43:31.679Z,78.89
2018-12-27T12:44:31.605Z,78.78
2018-12-27T12:45:31.623Z,79.20
2018-12-27T12:46:31.589Z,78.64
2018-12-27T12:47:31.738Z,79.99
2018-12-27T12:48:31.564Z,79.27
2018-12-27T12:49:31.621Z,79.27
2018-12-27T12:50:31.552Z,79.51
2018-12-27T12:51:31.637Z,79.27
2018-12-27T12:52:31.515Z,79.88